createdAt,value
2019-05-23T00:00:50.584Z,-74
2019-05-23T00:03:49.218Z,-74
2019-05-23T00:06:39.450Z,-75
2019-05-23T00:09:27.627Z,-75
2019-05-23T00:12:04.387Z,-75
2019-05-23T00:14:40.056Z,-75
2019-05-23T00:17:12.646Z,-76
2019-05-23T00:19:43.152Z,-75
2019-05-23T00:22:13.601Z,-74
2019-05-23T00:24:43.523Z,-75
2019-05-23T00:27:14.478Z,-75
2019-05-23T00:29:44.648Z,-75
2019-05-23T00:32:19.301Z,-75
2019-05-23T00:34:51.345Z,-75
2019-05-23T00:37:23.865Z,-75
2019-05-23T00:39:54.134Z,-75
2019-05-23T00:42:23.504Z,-75
2019-05-23T00:44:53.869Z,-75
2019-05-23T00:47:23.660Z,-75
2019-05-23T00:49:53.301Z,-75
2019-05-23T00:52:23.044Z,-74
2019-05-23T00:54:52.690Z,-75
2019-05-23T00:57:22.268Z,-75
2019-05-23T00:59:52.782Z,-75
2019-05-23T01:02:23.169Z,-75
2019-05-23T01:04:52.469Z,-75
2019-05-23T01:07:23.616Z,-76
2019-05-23T01:09:54.365Z,-75
2019-05-23T01:12:23.722Z,-75
2019-05-23T01:14:54.019Z,-75
2019-05-23T01:17:25.880Z,-75
2019-05-23T01:19:56.918Z,-75
2019-05-23T01:22:26.300Z,-74
2019-05-23T01:24:56.143Z,-75
2019-05-23T01:27:25.714Z,-75
2019-05-23T01:29:56.073Z,-75
2019-05-23T01:32:27.185Z,-75
2019-05-23T01:34:56.789Z,-75
2019-05-23T01:37:26.696Z,-76
2019-05-23T01:39:56.085Z,-75
2019-05-23T01:42:26.724Z,-75
2019-05-23T01:44:58.482Z,-75
2019-05-23T01:47:28.263Z,-75
2019-05-23T01:49:58.198Z,-75
2019-05-23T01:52:27.526Z,-75
2019-05-23T01:54:56.997Z,-75
2019-05-23T01:57:27.674Z,-75
2019-05-23T02:00:08.783Z,-75
2019-05-23T02:02:29.276Z,-75
2019-05-23T02:04:59.217Z,-75
2019-05-23T02:07:30.536Z,-75
2019-05-23T02:10:00.167Z,-75
2019-05-23T02:12:29.490Z,-75
2019-05-23T02:14:59.567Z,-75
2019-05-23T02:17:30.342Z,-76
2019-05-23T02:19:59.653Z,-75
2019-05-23T02:22:29.220Z,-75
2019-05-23T02:24:59.590Z,-75
2019-05-23T02:27:29.592Z,-75
2019-05-23T02:30:00.421Z,-75
2019-05-23T02:32:31.109Z,-75
2019-05-23T02:35:00.562Z,-75
2019-05-23T02:37:32.722Z,-75
2019-05-23T02:40:10.319Z,-75
2019-05-23T02:42:58.491Z,-75
2019-05-23T02:45:31.460Z,-75
2019-05-23T02:48:01.257Z,-75
2019-05-23T02:50:50.361Z,-75
2019-05-23T02:53:23.632Z,-75
2019-05-23T02:55:56.259Z,-75
2019-05-23T02:58:31.462Z,-75
2019-05-23T03:01:10.359Z,-74
2019-05-23T03:03:42.454Z,-75
2019-05-23T03:06:14.062Z,-77
2019-05-23T03:08:46.226Z,-75
2019-05-23T03:11:28.797Z,-75
2019-05-23T03:13:59.534Z,-75
2019-05-23T03:16:34.009Z,-75
2019-05-23T03:19:21.342Z,-76
2019-05-23T03:21:53.391Z,-75
2019-05-23T03:24:24.940Z,-75
2019-05-23T03:27:03.642Z,-74
2019-05-23T03:29:34.431Z,-75
2019-05-23T03:32:06.990Z,-75
2019-05-23T03:34:38.015Z,-75
2019-05-23T03:37:07.955Z,-75
2019-05-23T03:39:37.542Z,-75
2019-05-23T03:42:08.401Z,-76
2019-05-23T03:44:38.953Z,-75
2019-05-23T03:47:09.927Z,-76
2019-05-23T03:49:39.878Z,-75
2019-05-23T03:52:11.198Z,-75
2019-05-23T03:54:42.935Z,-74
2019-05-23T03:57:13.102Z,-74
2019-05-23T03:59:42.424Z,-74
2019-05-23T04:02:13.410Z,-75
2019-05-23T04:04:44.182Z,-74
2019-05-23T04:07:15.135Z,-76
2019-05-23T04:09:45.043Z,-75
2019-05-23T04:12:14.727Z,-75
2019-05-23T04:14:45.747Z,-76
2019-05-23T04:17:15.066Z,-75
2019-05-23T04:19:44.450Z,-74
2019-05-23T04:22:13.903Z,-75
2019-05-23T04:24:43.572Z,-74
2019-05-23T04:27:14.931Z,-74
2019-05-23T04:29:44.472Z,-74
2019-05-23T04:32:13.774Z,-75
2019-05-23T04:34:43.249Z,-74
2019-05-23T04:37:12.553Z,-76
2019-05-23T04:39:41.858Z,-75
2019-05-23T04:42:11.440Z,-75
2019-05-23T04:44:44.400Z,-75
2019-05-23T04:47:12.606Z,-75
2019-05-23T04:49:41.914Z,-75
2019-05-23T04:52:11.353Z,-74
2019-05-23T04:54:41.525Z,-75
2019-05-23T04:57:12.476Z,-75
2019-05-23T04:59:42.386Z,-75
2019-05-23T05:02:25.512Z,-75
2019-05-23T05:04:44.762Z,-74
2019-05-23T05:07:14.635Z,-75
2019-05-23T05:09:44.077Z,-75
2019-05-23T05:12:14.625Z,-75
2019-05-23T05:14:44.000Z,-75
2019-05-23T05:17:14.309Z,-75
2019-05-23T05:19:43.610Z,-75
2019-05-23T05:22:13.384Z,-75
2019-05-23T05:24:42.764Z,-75
2019-05-23T05:27:12.062Z,-75
2019-05-23T05:29:41.373Z,-75
2019-05-23T05:32:11.127Z,-74
2019-05-23T05:34:40.429Z,-75
2019-05-23T05:37:09.737Z,-75
2019-05-23T05:39:39.423Z,-74
2019-05-23T05:42:09.304Z,-75
2019-05-23T05:44:39.862Z,-75
2019-05-23T05:47:10.234Z,-75
2019-05-23T05:49:42.197Z,-75
2019-05-23T05:52:11.882Z,-75
2019-05-23T05:54:41.263Z,-75
2019-05-23T05:57:11.604Z,-75
2019-05-23T05:59:42.290Z,-75
2019-05-23T06:02:13.225Z,-75
2019-05-23T06:04:43.095Z,-74
2019-05-23T06:07:32.744Z,-75
2019-05-23T06:10:03.988Z,-75
2019-05-23T06:12:35.421Z,-75
2019-05-23T06:15:09.335Z,-75
2019-05-23T06:17:38.648Z,-75
2019-05-23T06:20:08.836Z,-75
2019-05-23T06:22:38.405Z,-74
2019-05-23T06:25:08.825Z,-75
2019-05-23T06:27:40.344Z,-75
2019-05-23T06:30:13.457Z,-75
2019-05-23T06:32:42.795Z,-74
2019-05-23T06:35:14.412Z,-75
2019-05-23T06:37:43.779Z,-75
2019-05-23T06:40:13.869Z,-77
2019-05-23T06:42:43.276Z,-75
2019-05-23T06:45:12.825Z,-75
2019-05-23T06:47:42.131Z,-75
2019-05-23T06:50:16.084Z,-76
2019-05-23T06:52:45.517Z,-75
2019-05-23T06:55:14.897Z,-75
2019-05-23T06:57:44.268Z,-75
2019-05-23T07:00:17.212Z,-75
2019-05-23T07:02:48.333Z,-75
2019-05-23T07:05:21.639Z,-75
2019-05-23T07:07:50.951Z,-75
2019-05-23T07:10:20.257Z,-75
2019-05-23T07:12:51.124Z,-75
2019-05-23T07:15:20.500Z,-75
2019-05-23T07:17:50.360Z,-75
2019-05-23T07:20:19.730Z,-75
2019-05-23T07:22:49.310Z,-75
2019-05-23T07:25:18.680Z,-75
2019-05-23T07:27:48.229Z,-74
2019-05-23T07:30:23.261Z,-74
2019-05-23T07:32:53.643Z,-74
2019-05-23T07:35:23.794Z,-75
2019-05-23T07:37:53.233Z,-75
2019-05-23T07:40:23.911Z,-75
2019-05-23T07:42:53.756Z,-75
2019-05-23T07:45:30.425Z,-75
2019-05-23T07:48:01.960Z,-75
2019-05-23T07:50:32.119Z,-75
2019-05-23T07:53:01.660Z,-75
2019-05-23T07:55:38.541Z,-75
2019-05-23T07:58:12.743Z,-75
2019-05-23T08:00:44.885Z,-75
2019-05-23T08:03:16.339Z,-75
2019-05-23T08:05:46.427Z,-75
2019-05-23T08:08:16.198Z,-75
2019-05-23T08:10:46.411Z,-74
2019-05-23T08:13:17.449Z,-75
2019-05-23T08:15:47.901Z,-75
2019-05-23T08:18:17.294Z,-75
2019-05-23T08:20:46.686Z,-75
2019-05-23T08:23:17.041Z,-75
2019-05-23T08:25:47.641Z,-75
2019-05-23T08:28:17.011Z,-75
2019-05-23T08:30:46.495Z,-75
2019-05-23T08:33:16.180Z,-75
2019-05-23T08:35:46.355Z,-75
2019-05-23T08:38:15.657Z,-75
2019-05-23T08:40:44.976Z,-76
2019-05-23T08:43:14.566Z,-76
2019-05-23T08:45:44.526Z,-75
2019-05-23T08:48:14.077Z,-75
2019-05-23T08:50:43.450Z,-75
2019-05-23T08:53:13.002Z,-75
2019-05-23T08:55:43.639Z,-74
2019-05-23T08:58:13.571Z,-76
2019-05-23T09:00:44.502Z,-75
2019-05-23T09:03:13.796Z,-75
2019-05-23T09:05:44.658Z,-75
2019-05-23T09:08:16.895Z,-75
2019-05-23T09:10:46.055Z,-75
2019-05-23T09:13:17.069Z,-76
2019-05-23T09:15:46.375Z,-75
2019-05-23T09:18:16.428Z,-73
2019-05-23T09:20:46.172Z,-75
2019-05-23T09:23:15.480Z,-76
2019-05-23T09:25:44.820Z,-75
2019-05-23T09:28:15.153Z,-75
2019-05-23T09:30:45.488Z,-74
2019-05-23T09:33:14.864Z,-74
2019-05-23T09:35:44.513Z,-76
2019-05-23T09:38:13.894Z,-76
2019-05-23T09:40:43.269Z,-77
2019-05-23T09:43:13.283Z,-77
2019-05-23T09:45:42.642Z,-77
2019-05-23T09:48:11.944Z,-76
2019-05-23T09:50:41.260Z,-76
2019-05-23T09:53:10.565Z,-77
2019-05-23T09:55:39.891Z,-78
2019-05-23T09:58:09.198Z,-76
2019-05-23T10:00:40.220Z,-75
2019-05-23T10:03:09.520Z,-76
2019-05-23T10:05:43.491Z,-75
2019-05-23T10:08:11.682Z,-75
2019-05-23T10:10:41.329Z,-75
2019-05-23T10:13:10.713Z,-75
2019-05-23T10:15:45.902Z,-76
2019-05-23T10:18:19.722Z,-76
2019-05-23T10:20:49.021Z,-76
2019-05-23T10:23:18.373Z,-74
2019-05-23T10:25:47.733Z,-75
2019-05-23T10:28:17.121Z,-76
2019-05-23T10:30:46.510Z,-75
2019-05-23T10:33:15.902Z,-76
2019-05-23T10:35:59.641Z,-76
2019-05-23T10:38:17.418Z,-76
2019-05-23T10:40:48.708Z,-76
2019-05-23T10:43:18.021Z,-76
2019-05-23T10:45:48.001Z,-76
2019-05-23T10:48:18.931Z,-76
2019-05-23T10:50:48.252Z,-77
2019-05-23T10:53:18.135Z,-77
2019-05-23T10:55:47.730Z,-77
2019-05-23T10:58:17.884Z,-77
2019-05-23T11:00:47.288Z,-77
2019-05-23T11:03:17.233Z,-75
2019-05-23T11:05:46.881Z,-74
2019-05-23T11:08:16.685Z,-76
2019-05-23T11:10:46.721Z,-76
2019-05-23T11:13:16.155Z,-73
2019-05-23T11:15:45.505Z,-77
2019-05-23T11:18:15.274Z,-76
2019-05-23T11:20:44.654Z,-77
2019-05-23T11:23:15.605Z,-76
2019-05-23T11:25:45.014Z,-75
2019-05-23T11:28:14.326Z,-75
2019-05-23T11:30:50.034Z,-75
2019-05-23T11:33:20.454Z,-75
2019-05-23T11:35:50.600Z,-75
2019-05-23T11:38:20.385Z,-76
2019-05-23T11:40:50.231Z,-76
2019-05-23T11:43:20.521Z,-76
2019-05-23T11:45:51.538Z,-76
2019-05-23T11:48:21.508Z,-76
2019-05-23T11:50:50.880Z,-76
2019-05-23T11:53:20.201Z,-74
2019-05-23T11:55:53.981Z,-76
2019-05-23T11:58:20.571Z,-74
2019-05-23T12:00:54.896Z,-76
2019-05-23T12:03:24.553Z,-76
2019-05-23T12:05:53.913Z,-76
2019-05-23T12:08:23.334Z,-75
2019-05-23T12:10:52.704Z,-76
2019-05-23T12:13:22.006Z,-76
2019-05-23T12:15:52.385Z,-76
2019-05-23T12:18:22.051Z,-76
2019-05-23T12:20:51.429Z,-77
2019-05-23T12:23:20.742Z,-77
2019-05-23T12:25:50.121Z,-77
2019-05-23T12:28:20.190Z,-77
2019-05-23T12:30:49.518Z,-76
2019-05-23T12:33:18.821Z,-76
2019-05-23T12:35:48.128Z,-76
2019-05-23T12:38:17.442Z,-76
2019-05-23T12:40:46.813Z,-77
2019-05-23T12:43:16.212Z,-76
2019-05-23T12:45:45.517Z,-76
2019-05-23T12:48:19.147Z,-76
2019-05-23T12:50:53.800Z,-76
2019-05-23T12:53:21.572Z,-76
2019-05-23T12:55:50.927Z,-76
2019-05-23T12:58:21.577Z,-76
2019-05-23T13:00:53.924Z,-76
2019-05-23T13:03:24.996Z,-77
2019-05-23T13:05:54.368Z,-77
2019-05-23T13:08:23.945Z,-78
2019-05-23T13:10:53.276Z,-79
2019-05-23T13:13:22.736Z,-78
2019-05-23T13:15:52.041Z,-79
2019-05-23T13:18:21.530Z,-76
2019-05-23T13:20:51.113Z,-76
2019-05-23T13:23:21.499Z,-75
2019-05-23T13:25:51.268Z,-74
2019-05-23T13:28:20.673Z,-74
2019-05-23T13:30:50.055Z,-74
2019-05-23T13:33:19.740Z,-74
2019-05-23T13:35:49.178Z,-74
2019-05-23T13:38:18.511Z,-74
2019-05-23T13:40:47.806Z,-73
2019-05-23T13:43:17.116Z,-75
2019-05-23T13:45:47.384Z,-74
2019-05-23T13:48:16.690Z,-74
2019-05-23T13:50:45.998Z,-74
2019-05-23T13:53:16.372Z,-74
2019-05-23T13:55:46.117Z,-74
2019-05-23T13:58:15.814Z,-74
2019-05-23T14:00:45.141Z,-74
2019-05-23T14:03:14.665Z,-73
2019-05-23T14:05:43.973Z,-73
2019-05-23T14:08:13.605Z,-74
2019-05-23T14:10:43.079Z,-74
2019-05-23T14:13:12.456Z,-74
2019-05-23T14:15:43.893Z,-74
2019-05-23T14:18:15.810Z,-74
2019-05-23T14:20:45.313Z,-73
2019-05-23T14:23:20.370Z,-74
2019-05-23T14:25:50.529Z,-74
2019-05-23T14:28:20.073Z,-74
2019-05-23T14:30:51.314Z,-74
2019-05-23T14:33:34.614Z,-73
2019-05-23T14:36:08.466Z,-73
2019-05-23T14:38:38.796Z,-73
2019-05-23T14:41:08.344Z,-73
2019-05-23T14:43:38.138Z,-73
2019-05-23T14:46:17.936Z,-73
2019-05-23T14:48:48.953Z,-73
2019-05-23T14:51:19.945Z,-73
2019-05-23T14:54:07.212Z,-73
2019-05-23T14:56:38.350Z,-72
2019-05-23T14:59:08.904Z,-72
2019-05-23T15:01:38.869Z,-72
2019-05-23T15:04:08.241Z,-73
2019-05-23T15:06:37.814Z,-72
2019-05-23T15:09:08.853Z,-71
2019-05-23T15:11:38.705Z,-70
2019-05-23T15:14:08.150Z,-71
2019-05-23T15:16:37.458Z,-73
2019-05-23T15:19:09.711Z,-72
2019-05-23T15:21:40.069Z,-72
2019-05-23T15:24:09.511Z,-72
2019-05-23T15:26:38.881Z,-72
2019-05-23T15:29:08.213Z,-72
2019-05-23T15:31:37.514Z,-72
2019-05-23T15:34:06.819Z,-73
2019-05-23T15:36:36.227Z,-72
2019-05-23T15:39:10.152Z,-72
2019-05-23T15:41:40.684Z,-72
2019-05-23T15:44:23.871Z,-72
2019-05-23T15:46:41.073Z,-73
2019-05-23T15:49:11.749Z,-74
2019-05-23T15:51:54.110Z,-73
2019-05-23T15:54:24.609Z,-72
2019-05-23T15:56:58.802Z,-73
2019-05-23T15:59:32.189Z,-72
2019-05-23T16:02:03.151Z,-73
2019-05-23T16:04:32.454Z,-72
2019-05-23T16:07:01.849Z,-73
2019-05-23T16:09:31.320Z,-72
2019-05-23T16:12:00.817Z,-72
2019-05-23T16:14:31.257Z,-72
2019-05-23T16:17:00.549Z,-73
2019-05-23T16:19:30.867Z,-72
2019-05-23T16:22:01.302Z,-72
2019-05-23T16:24:31.045Z,-73
2019-05-23T16:27:01.544Z,-72
2019-05-23T16:29:30.941Z,-72
2019-05-23T16:32:00.299Z,-72
2019-05-23T16:34:30.130Z,-72
2019-05-23T16:36:59.424Z,-73
2019-05-23T16:39:44.170Z,-73
2019-05-23T16:42:00.183Z,-73
2019-05-23T16:44:29.486Z,-73
2019-05-23T16:46:58.793Z,-72
2019-05-23T16:49:28.105Z,-72
2019-05-23T16:51:58.716Z,-72
2019-05-23T16:54:30.845Z,-72
2019-05-23T16:57:01.845Z,-72
2019-05-23T16:59:32.842Z,-72
2019-05-23T17:02:06.512Z,-73
2019-05-23T17:04:48.493Z,-73
2019-05-23T17:07:32.450Z,-72
2019-05-23T17:10:09.910Z,-73
2019-05-23T17:12:41.044Z,-73
2019-05-23T17:15:28.100Z,-73
2019-05-23T17:18:02.990Z,-73
2019-05-23T17:20:42.124Z,-72
2019-05-23T17:23:17.473Z,-72
2019-05-23T17:25:54.422Z,-72
2019-05-23T17:28:26.479Z,-72
2019-05-23T17:31:00.564Z,-72
2019-05-23T17:33:31.557Z,-72
2019-05-23T17:36:01.214Z,-72
2019-05-23T17:38:30.584Z,-72
2019-05-23T17:41:00.260Z,-72
2019-05-23T17:43:29.585Z,-72
2019-05-23T17:45:58.982Z,-72
2019-05-23T17:48:28.293Z,-72
2019-05-23T17:50:57.609Z,-72
2019-05-23T17:53:27.189Z,-72
2019-05-23T17:55:57.162Z,-73
2019-05-23T17:58:26.706Z,-72
2019-05-23T18:00:56.213Z,-72
2019-05-23T18:03:25.562Z,-72
2019-05-23T18:05:55.333Z,-72
2019-05-23T18:08:26.849Z,-73
2019-05-23T18:10:56.193Z,-72
2019-05-23T18:13:25.553Z,-73
2019-05-23T18:15:55.401Z,-72
2019-05-23T18:18:25.525Z,-73
2019-05-23T18:20:55.274Z,-73
2019-05-23T18:23:24.669Z,-73
2019-05-23T18:25:54.002Z,-73
2019-05-23T18:28:24.099Z,-72
2019-05-23T18:30:58.381Z,-72
2019-05-23T18:33:29.422Z,-72
2019-05-23T18:35:59.204Z,-72
2019-05-23T18:38:28.685Z,-72
2019-05-23T18:41:03.091Z,-73
2019-05-23T18:43:29.966Z,-72
2019-05-23T18:46:00.938Z,-72
2019-05-23T18:48:30.246Z,-72
2019-05-23T18:50:59.832Z,-73
2019-05-23T18:53:29.372Z,-72
2019-05-23T18:55:58.748Z,-72
2019-05-23T18:58:28.260Z,-72
2019-05-23T19:01:09.277Z,-73
2019-05-23T19:03:38.617Z,-73
2019-05-23T19:06:07.953Z,-73
2019-05-23T19:08:37.396Z,-74
2019-05-23T19:11:20.295Z,-73
2019-05-23T19:13:37.810Z,-73
2019-05-23T19:16:07.337Z,-73
2019-05-23T19:18:36.855Z,-73
2019-05-23T19:21:10.461Z,-73
2019-05-23T19:23:39.839Z,-73
2019-05-23T19:26:09.973Z,-72
2019-05-23T19:28:43.068Z,-73
2019-05-23T19:31:13.025Z,-73
2019-05-23T19:33:42.488Z,-73
2019-05-23T19:36:11.873Z,-73
2019-05-23T19:38:41.300Z,-73
2019-05-23T19:41:12.547Z,-73
2019-05-23T19:43:42.348Z,-73
2019-05-23T19:46:13.143Z,-73
2019-05-23T19:48:42.990Z,-73
2019-05-23T19:51:12.580Z,-73
2019-05-23T19:53:41.904Z,-73
2019-05-23T19:56:11.521Z,-72
2019-05-23T19:58:41.606Z,-73
2019-05-23T20:01:11.886Z,-73
2019-05-23T20:03:43.680Z,-72
2019-05-23T20:06:13.936Z,-73
2019-05-23T20:08:44.003Z,-73
2019-05-23T20:11:13.389Z,-73
2019-05-23T20:13:42.714Z,-73
2019-05-23T20:16:12.077Z,-73
2019-05-23T20:18:41.432Z,-73
2019-05-23T20:21:11.597Z,-73
2019-05-23T20:23:41.374Z,-73
2019-05-23T20:26:12.211Z,-72
2019-05-23T20:28:41.787Z,-72
2019-05-23T20:31:11.343Z,-72
2019-05-23T20:33:40.655Z,-73
2019-05-23T20:36:12.448Z,-72
2019-05-23T20:38:42.224Z,-73
2019-05-23T20:41:11.610Z,-73
2019-05-23T20:43:40.942Z,-72
2019-05-23T20:46:10.329Z,-73
2019-05-23T20:48:39.710Z,-73
2019-05-23T20:51:09.267Z,-73
2019-05-23T20:53:38.575Z,-73
2019-05-23T20:56:09.197Z,-72
2019-05-23T20:58:38.508Z,-72
2019-05-23T21:01:16.377Z,-72
2019-05-23T21:03:46.401Z,-72
2019-05-23T21:06:15.901Z,-72
2019-05-23T21:08:45.293Z,-73
2019-05-23T21:11:14.600Z,-73
2019-05-23T21:13:43.911Z,-73
2019-05-23T21:16:13.692Z,-73
2019-05-23T21:18:43.022Z,-72
2019-05-23T21:21:12.401Z,-73
2019-05-23T21:23:41.718Z,-73
2019-05-23T21:26:11.919Z,-73
2019-05-23T21:28:41.244Z,-72
2019-05-23T21:31:13.610Z,-72
2019-05-23T21:33:42.912Z,-72
2019-05-23T21:36:12.241Z,-72
2019-05-23T21:38:42.625Z,-73
2019-05-23T21:41:11.947Z,-72
2019-05-23T21:43:42.002Z,-73
2019-05-23T21:46:11.310Z,-73
2019-05-23T21:48:42.089Z,-72
2019-05-23T21:51:11.497Z,-72
2019-05-23T21:53:41.054Z,-72
2019-05-23T21:56:10.377Z,-74
2019-05-23T21:58:39.756Z,-74
2019-05-23T22:01:11.053Z,-74
2019-05-23T22:03:45.071Z,-74
2019-05-23T22:06:16.942Z,-74
2019-05-23T22:08:46.244Z,-75
2019-05-23T22:11:15.637Z,-74
2019-05-23T22:13:45.117Z,-72
2019-05-23T22:16:14.758Z,-72
2019-05-23T22:18:44.348Z,-72
2019-05-23T22:21:13.897Z,-72
2019-05-23T22:23:44.330Z,-72
2019-05-23T22:26:14.446Z,-72
2019-05-23T22:28:43.825Z,-72
2019-05-23T22:31:13.133Z,-72
2019-05-23T22:33:49.916Z,-72
2019-05-23T22:36:20.394Z,-74
2019-05-23T22:38:50.776Z,-74
2019-05-23T22:41:20.702Z,-74
2019-05-23T22:43:50.012Z,-74
2019-05-23T22:46:21.054Z,-74
2019-05-23T22:48:50.529Z,-74
2019-05-23T22:51:19.839Z,-74
2019-05-23T22:53:49.164Z,-74
2019-05-23T22:56:18.466Z,-74
2019-05-23T22:58:49.717Z,-74
2019-05-23T23:01:20.706Z,-74
2019-05-23T23:03:50.029Z,-74
2019-05-23T23:06:19.707Z,-73
2019-05-23T23:08:50.083Z,-74
2019-05-23T23:11:19.462Z,-74
2019-05-23T23:13:48.776Z,-74
2019-05-23T23:16:18.114Z,-74
2019-05-23T23:18:47.488Z,-74
2019-05-23T23:21:17.760Z,-74
2019-05-23T23:23:47.070Z,-73
2019-05-23T23:26:16.925Z,-74
2019-05-23T23:28:46.241Z,-74
2019-05-23T23:31:15.546Z,-73
2019-05-23T23:33:44.862Z,-74
2019-05-23T23:36:14.174Z,-74
2019-05-23T23:38:44.521Z,-74
2019-05-23T23:41:13.908Z,-74
2019-05-23T23:43:58.166Z,-74
2019-05-23T23:46:32.944Z,-74
2019-05-23T23:49:20.376Z,-74
2019-05-23T23:52:07.552Z,-74
2019-05-23T23:54:54.976Z,-74
2019-05-23T23:57:43.070Z,-74
